Main page
METAR-TAF:

METAR-TAF

Airports :

Rajkot Airport

Rajkot, India

latitude: 22-18N, longitude: 070-47E, elevation: 134 m

Current weather observation

The report was made 4 hours and 41 minutes ago, at 18:00 UTC
Wind 8 kt from the Southwest
Temperature 31°C
Humidity 71%
Pressure 1000 hPa
Visibility: 6000 m
Few clouds at a height of 2000 ft

METAR: VARK 161800Z 23008KT 6000 FEW020 31/25 Q1000 NOSIG

Time: 04:11 (22:41 UTC)

Forecast

The report was made 2 hours and 41 minutes ago, at 20:00 UTC
Forecast valid from 16 at 21 UTC to 17 at 06 UTC
Wind 8 kt from the Southwest
Visibility: 6000 m
Few clouds at a height of 2000 ft
Temporary
from 17 at 01 UTC to 17 at 05 UTC
Visibility: 4000 m
Scattered clouds at a height of 1500 ft
Scattered clouds at a height of 2000 ft
haze

TAF: VARK 162000Z 1621/1706 23008KT 6000 FEW020 TEMPO 1701/1705 4000 ?DZ HZ SCT015 SCT020

Weather observations and forecasts of more than 4000 airports (METAR and TAF reports).

The available stations are represented by yellow and red dots on the map.

Hover mouse over dot to see the name of the station.

Then click to see weather observations and forecasts.

To change the map : click on the green buttons with a black cross to zoom in, on the green button with a dash to zoom out, or on the green arrows for adjacent maps.


METAR-TAF: